sensor_id;sensor_type;location;lat;lon;timestamp;P1;durP1;ratioP1;P2;durP2;ratioP2
42866;SDS011;39461;40.948;73.006;2023-03-25T00:01:19;24.88;;;8.07;;
42866;SDS011;39461;40.948;73.006;2023-03-25T00:03:56;19.52;;;7.40;;
42866;SDS011;39461;40.948;73.006;2023-03-25T00:06:29;23.48;;;7.47;;
42866;SDS011;39461;40.948;73.006;2023-03-25T00:09:05;19.33;;;7.75;;
42866;SDS011;39461;40.948;73.006;2023-03-25T00:11:39;20.15;;;7.68;;
42866;SDS011;39461;40.948;73.006;2023-03-25T00:14:12;19.20;;;8.18;;
42866;SDS011;39461;40.948;73.006;2023-03-25T00:16:47;25.85;;;7.55;;
42866;SDS011;39461;40.948;73.006;2023-03-25T00:19:23;20.02;;;7.20;;
42866;SDS011;39461;40.948;73.006;2023-03-25T00:21:56;19.23;;;7.65;;
42866;SDS011;39461;40.948;73.006;2023-03-25T00:24:30;19.15;;;8.38;;
42866;SDS011;39461;40.948;73.006;2023-03-25T00:27:05;22.15;;;9.00;;
42866;SDS011;39461;40.948;73.006;2023-03-25T00:29:34;17.65;;;7.72;;
42866;SDS011;39461;40.948;73.006;2023-03-25T00:32:03;23.77;;;8.93;;
42866;SDS011;39461;40.948;73.006;2023-03-25T00:34:37;21.08;;;8.00;;
42866;SDS011;39461;40.948;73.006;2023-03-25T00:37:12;24.23;;;8.50;;
42866;SDS011;39461;40.948;73.006;2023-03-25T00:39:54;18.02;;;8.02;;
42866;SDS011;39461;40.948;73.006;2023-03-25T00:42:30;20.35;;;8.82;;
42866;SDS011;39461;40.948;73.006;2023-03-25T00:48:06;20.23;;;8.15;;
42866;SDS011;39461;40.948;73.006;2023-03-25T00:50:41;23.65;;;7.80;;
42866;SDS011;39461;40.948;73.006;2023-03-25T00:56:15;19.27;;;6.35;;
42866;SDS011;39461;40.948;73.006;2023-03-25T00:58:56;19.90;;;7.32;;
42866;SDS011;39461;40.948;73.006;2023-03-25T01:01:31;27.13;;;8.63;;
42866;SDS011;39461;40.948;73.006;2023-03-25T01:04:06;25.85;;;8.43;;
42866;SDS011;39461;40.948;73.006;2023-03-25T01:06:49;20.10;;;7.32;;
42866;SDS011;39461;40.948;73.006;2023-03-25T01:09:24;37.80;;;7.80;;
42866;SDS011;39461;40.948;73.006;2023-03-25T01:11:59;28.38;;;9.50;;
42866;SDS011;39461;40.948;73.006;2023-03-25T01:14:34;33.45;;;8.48;;
42866;SDS011;39461;40.948;73.006;2023-03-25T01:17:07;21.00;;;7.63;;
42866;SDS011;39461;40.948;73.006;2023-03-25T01:19:41;25.80;;;7.90;;
42866;SDS011;39461;40.948;73.006;2023-03-25T01:22:14;24.98;;;7.88;;
42866;SDS011;39461;40.948;73.006;2023-03-25T01:24:47;26.48;;;7.70;;
42866;SDS011;39461;40.948;73.006;2023-03-25T01:27:20;24.50;;;8.68;;
42866;SDS011;39461;40.948;73.006;2023-03-25T01:29:59;18.02;;;7.70;;
42866;SDS011;39461;40.948;73.006;2023-03-25T01:32:38;67.28;;;9.95;;
42866;SDS011;39461;40.948;73.006;2023-03-25T01:35:11;22.20;;;8.57;;
42866;SDS011;39461;40.948;73.006;2023-03-25T01:37:44;23.05;;;8.27;;
42866;SDS011;39461;40.948;73.006;2023-03-25T01:40:19;22.38;;;8.13;;
42866;SDS011;39461;40.948;73.006;2023-03-25T01:42:54;27.33;;;9.02;;
42866;SDS011;39461;40.948;73.006;2023-03-25T01:45:30;28.25;;;8.65;;
42866;SDS011;39461;40.948;73.006;2023-03-25T01:50:56;40.75;;;9.32;;
42866;SDS011;39461;40.948;73.006;2023-03-25T01:53:30;37.20;;;9.60;;
42866;SDS011;39461;40.948;73.006;2023-03-25T01:56:04;35.83;;;9.93;;
42866;SDS011;39461;40.948;73.006;2023-03-25T01:58:38;29.23;;;8.70;;
42866;SDS011;39461;40.948;73.006;2023-03-25T02:01:12;34.55;;;9.07;;
42866;SDS011;39461;40.948;73.006;2023-03-25T02:03:47;33.53;;;9.68;;
42866;SDS011;39461;40.948;73.006;2023-03-25T02:06:26;26.80;;;8.85;;
42866;SDS011;39461;40.948;73.006;2023-03-25T02:09:02;27.95;;;9.13;;
42866;SDS011;39461;40.948;73.006;2023-03-25T02:11:37;33.83;;;9.18;;
42866;SDS011;39461;40.948;73.006;2023-03-25T02:14:14;27.27;;;8.68;;
42866;SDS011;39461;40.948;73.006;2023-03-25T02:22:24;24.98;;;8.82;;
42866;SDS011;39461;40.948;73.006;2023-03-25T02:25:27;31.27;;;8.68;;
42866;SDS011;39461;40.948;73.006;2023-03-25T02:28:07;29.80;;;8.57;;
42866;SDS011;39461;40.948;73.006;2023-03-25T02:30:44;32.90;;;9.32;;
42866;SDS011;39461;40.948;73.006;2023-03-25T02:38:57;47.47;;;21.70;;
42866;SDS011;39461;40.948;73.006;2023-03-25T02:41:36;181.18;;;95.70;;
42866;SDS011;39461;40.948;73.006;2023-03-25T02:46:49;107.05;;;41.75;;
42866;SDS011;39461;40.948;73.006;2023-03-25T02:52:13;89.10;;;41.05;;
42866;SDS011;39461;40.948;73.006;2023-03-25T02:54:50;33.78;;;14.07;;
42866;SDS011;39461;40.948;73.006;2023-03-25T02:57:24;31.55;;;13.02;;
42866;SDS011;39461;40.948;73.006;2023-03-25T03:00:03;243.57;;;104.90;;
42866;SDS011;39461;40.948;73.006;2023-03-25T03:02:48;300.58;;;140.23;;
42866;SDS011;39461;40.948;73.006;2023-03-25T03:05:25;45.25;;;18.17;;
42866;SDS011;39461;40.948;73.006;2023-03-25T03:19:20;66.57;;;33.53;;
42866;SDS011;39461;40.948;73.006;2023-03-25T03:22:01;63.38;;;29.50;;
42866;SDS011;39461;40.948;73.006;2023-03-25T03:24:47;50.20;;;21.83;;
42866;SDS011;39461;40.948;73.006;2023-03-25T03:30:06;40.10;;;15.50;;
42866;SDS011;39461;40.948;73.006;2023-03-25T03:32:49;43.13;;;20.08;;
42866;SDS011;39461;40.948;73.006;2023-03-25T03:35:26;44.00;;;21.75;;
42866;SDS011;39461;40.948;73.006;2023-03-25T03:38:03;89.35;;;37.58;;
42866;SDS011;39461;40.948;73.006;2023-03-25T03:40:40;38.67;;;15.10;;
42866;SDS011;39461;40.948;73.006;2023-03-25T03:43:30;29.92;;;13.82;;
42866;SDS011;39461;40.948;73.006;2023-03-25T03:46:06;29.85;;;14.15;;
42866;SDS011;39461;40.948;73.006;2023-03-25T03:48:46;151.45;;;111.35;;
42866;SDS011;39461;40.948;73.006;2023-03-25T03:51:29;70.18;;;39.90;;
42866;SDS011;39461;40.948;73.006;2023-03-25T03:54:11;55.60;;;22.25;;
42866;SDS011;39461;40.948;73.006;2023-03-25T03:56:54;45.85;;;20.58;;
42866;SDS011;39461;40.948;73.006;2023-03-25T03:59:34;40.55;;;15.02;;
42866;SDS011;39461;40.948;73.006;2023-03-25T04:02:13;31.20;;;16.50;;
42866;SDS011;39461;40.948;73.006;2023-03-25T04:04:50;42.92;;;17.77;;
42866;SDS011;39461;40.948;73.006;2023-03-25T04:07:29;32.30;;;17.77;;
42866;SDS011;39461;40.948;73.006;2023-03-25T04:10:13;38.90;;;19.25;;
42866;SDS011;39461;40.948;73.006;2023-03-25T04:12:49;39.97;;;19.35;;
42866;SDS011;39461;40.948;73.006;2023-03-25T04:15:25;45.15;;;23.05;;
42866;SDS011;39461;40.948;73.006;2023-03-25T04:18:00;52.35;;;25.23;;
42866;SDS011;39461;40.948;73.006;2023-03-25T04:20:35;48.60;;;25.00;;
42866;SDS011;39461;40.948;73.006;2023-03-25T04:23:14;41.85;;;24.75;;
42866;SDS011;39461;40.948;73.006;2023-03-25T04:25:47;44.97;;;25.38;;
42866;SDS011;39461;40.948;73.006;2023-03-25T04:28:23;50.40;;;26.23;;
42866;SDS011;39461;40.948;73.006;2023-03-25T04:30:52;46.67;;;26.15;;
42866;SDS011;39461;40.948;73.006;2023-03-25T04:33:25;42.22;;;25.20;;
42866;SDS011;39461;40.948;73.006;2023-03-25T04:36:02;51.03;;;26.25;;
42866;SDS011;39461;40.948;73.006;2023-03-25T04:38:39;44.30;;;26.60;;
42866;SDS011;39461;40.948;73.006;2023-03-25T04:41:18;51.20;;;29.65;;
42866;SDS011;39461;40.948;73.006;2023-03-25T04:43:53;52.00;;;30.05;;
42866;SDS011;39461;40.948;73.006;2023-03-25T04:46:28;59.05;;;33.88;;
42866;SDS011;39461;40.948;73.006;2023-03-25T04:49:06;49.13;;;29.60;;
42866;SDS011;39461;40.948;73.006;2023-03-25T04:51:47;53.70;;;28.92;;
42866;SDS011;39461;40.948;73.006;2023-03-25T04:54:29;57.95;;;28.67;;
42866;SDS011;39461;40.948;73.006;2023-03-25T04:57:02;58.75;;;31.73;;
42866;SDS011;39461;40.948;73.006;2023-03-25T04:59:39;57.42;;;30.50;;
42866;SDS011;39461;40.948;73.006;2023-03-25T05:02:12;60.50;;;31.27;;
42866;SDS011;39461;40.948;73.006;2023-03-25T05:04:47;69.80;;;33.83;;
42866;SDS011;39461;40.948;73.006;2023-03-25T05:07:22;52.03;;;30.65;;
42866;SDS011;39461;40.948;73.006;2023-03-25T05:09:55;55.53;;;31.25;;
42866;SDS011;39461;40.948;73.006;2023-03-25T05:12:28;54.80;;;31.85;;
42866;SDS011;39461;40.948;73.006;2023-03-25T05:15:03;54.63;;;31.58;;
42866;SDS011;39461;40.948;73.006;2023-03-25T05:17:39;56.60;;;32.58;;
42866;SDS011;39461;40.948;73.006;2023-03-25T05:20:12;54.25;;;33.55;;
42866;SDS011;39461;40.948;73.006;2023-03-25T05:22:45;60.00;;;32.50;;
42866;SDS011;39461;40.948;73.006;2023-03-25T05:25:18;54.20;;;32.97;;
42866;SDS011;39461;40.948;73.006;2023-03-25T05:27:56;57.38;;;34.35;;
42866;SDS011;39461;40.948;73.006;2023-03-25T05:30:31;63.97;;;34.60;;
42866;SDS011;39461;40.948;73.006;2023-03-25T05:33:14;61.28;;;34.53;;
42866;SDS011;39461;40.948;73.006;2023-03-25T05:35:48;55.38;;;33.85;;
42866;SDS011;39461;40.948;73.006;2023-03-25T05:38:25;64.72;;;34.05;;
42866;SDS011;39461;40.948;73.006;2023-03-25T05:41:00;68.05;;;34.58;;
42866;SDS011;39461;40.948;73.006;2023-03-25T05:43:38;55.08;;;34.55;;
42866;SDS011;39461;40.948;73.006;2023-03-25T05:46:11;65.30;;;36.45;;
42866;SDS011;39461;40.948;73.006;2023-03-25T05:48:46;64.43;;;34.20;;
42866;SDS011;39461;40.948;73.006;2023-03-25T05:51:25;61.72;;;33.30;;
42866;SDS011;39461;40.948;73.006;2023-03-25T05:53:59;65.32;;;35.20;;
42866;SDS011;39461;40.948;73.006;2023-03-25T05:56:32;70.85;;;39.33;;
42866;SDS011;39461;40.948;73.006;2023-03-25T05:59:07;55.60;;;36.58;;
42866;SDS011;39461;40.948;73.006;2023-03-25T06:01:42;51.78;;;33.10;;
42866;SDS011;39461;40.948;73.006;2023-03-25T06:07:20;61.78;;;34.13;;
42866;SDS011;39461;40.948;73.006;2023-03-25T06:09:53;63.42;;;34.45;;
42866;SDS011;39461;40.948;73.006;2023-03-25T06:12:28;66.13;;;37.13;;
42866;SDS011;39461;40.948;73.006;2023-03-25T06:15:09;65.32;;;35.20;;
42866;SDS011;39461;40.948;73.006;2023-03-25T06:17:44;56.40;;;34.72;;
42866;SDS011;39461;40.948;73.006;2023-03-25T06:20:27;57.17;;;34.88;;
42866;SDS011;39461;40.948;73.006;2023-03-25T06:23:02;71.68;;;33.55;;
42866;SDS011;39461;40.948;73.006;2023-03-25T06:25:35;57.70;;;34.58;;
42866;SDS011;39461;40.948;73.006;2023-03-25T06:28:10;52.17;;;31.98;;
42866;SDS011;39461;40.948;73.006;2023-03-25T06:30:38;55.15;;;32.17;;
42866;SDS011;39461;40.948;73.006;2023-03-25T06:33:08;60.22;;;34.53;;
42866;SDS011;39461;40.948;73.006;2023-03-25T06:35:41;64.28;;;33.45;;
42866;SDS011;39461;40.948;73.006;2023-03-25T06:38:16;59.95;;;34.42;;
42866;SDS011;39461;40.948;73.006;2023-03-25T06:40:51;58.30;;;32.88;;
42866;SDS011;39461;40.948;73.006;2023-03-25T06:43:24;60.00;;;31.50;;
42866;SDS011;39461;40.948;73.006;2023-03-25T06:45:58;53.13;;;30.33;;
42866;SDS011;39461;40.948;73.006;2023-03-25T06:48:33;56.60;;;32.22;;
42866;SDS011;39461;40.948;73.006;2023-03-25T06:51:08;51.50;;;30.13;;
42866;SDS011;39461;40.948;73.006;2023-03-25T06:53:41;51.05;;;28.70;;
42866;SDS011;39461;40.948;73.006;2023-03-25T06:56:14;58.13;;;31.88;;
42866;SDS011;39461;40.948;73.006;2023-03-25T06:58:47;56.97;;;34.28;;
42866;SDS011;39461;40.948;73.006;2023-03-25T07:01:20;53.53;;;30.77;;
42866;SDS011;39461;40.948;73.006;2023-03-25T07:03:53;57.65;;;32.33;;
42866;SDS011;39461;40.948;73.006;2023-03-25T07:06:27;57.47;;;30.85;;
42866;SDS011;39461;40.948;73.006;2023-03-25T07:09:00;55.67;;;30.13;;
42866;SDS011;39461;40.948;73.006;2023-03-25T07:11:35;59.45;;;30.08;;
42866;SDS011;39461;40.948;73.006;2023-03-25T07:14:10;67.75;;;30.95;;
42866;SDS011;39461;40.948;73.006;2023-03-25T07:16:43;44.55;;;28.05;;
42866;SDS011;39461;40.948;73.006;2023-03-25T07:19:18;73.75;;;29.17;;
42866;SDS011;39461;40.948;73.006;2023-03-25T07:24:52;69.40;;;38.60;;
42866;SDS011;39461;40.948;73.006;2023-03-25T07:27:27;55.13;;;28.75;;
42866;SDS011;39461;40.948;73.006;2023-03-25T07:30:00;49.88;;;28.02;;
42866;SDS011;39461;40.948;73.006;2023-03-25T07:32:33;51.58;;;28.70;;
42866;SDS011;39461;40.948;73.006;2023-03-25T07:35:06;53.95;;;29.02;;
42866;SDS011;39461;40.948;73.006;2023-03-25T07:37:42;47.45;;;29.00;;
42866;SDS011;39461;40.948;73.006;2023-03-25T07:40:17;48.17;;;27.27;;
42866;SDS011;39461;40.948;73.006;2023-03-25T07:45:52;53.35;;;28.02;;
42866;SDS011;39461;40.948;73.006;2023-03-25T07:51:24;43.60;;;27.63;;
42866;SDS011;39461;40.948;73.006;2023-03-25T07:54:01;47.17;;;27.02;;
42866;SDS011;39461;40.948;73.006;2023-03-25T07:56:34;54.92;;;29.10;;
42866;SDS011;39461;40.948;73.006;2023-03-25T07:59:07;52.03;;;29.63;;
42866;SDS011;39461;40.948;73.006;2023-03-25T08:01:42;59.80;;;28.80;;
42866;SDS011;39461;40.948;73.006;2023-03-25T08:04:17;56.90;;;28.33;;
42866;SDS011;39461;40.948;73.006;2023-03-25T08:06:50;62.80;;;28.20;;
42866;SDS011;39461;40.948;73.006;2023-03-25T08:09:25;53.17;;;28.65;;
42866;SDS011;39461;40.948;73.006;2023-03-25T08:12:00;59.58;;;30.95;;
42866;SDS011;39461;40.948;73.006;2023-03-25T08:14:35;52.72;;;29.00;;
42866;SDS011;39461;40.948;73.006;2023-03-25T08:17:09;51.42;;;26.38;;
42866;SDS011;39461;40.948;73.006;2023-03-25T08:19:42;47.13;;;25.27;;
42866;SDS011;39461;40.948;73.006;2023-03-25T08:22:15;48.58;;;24.92;;
42866;SDS011;39461;40.948;73.006;2023-03-25T08:24:48;39.72;;;24.15;;
42866;SDS011;39461;40.948;73.006;2023-03-25T08:27:22;42.40;;;23.67;;
42866;SDS011;39461;40.948;73.006;2023-03-25T08:29:49;43.97;;;24.25;;
42866;SDS011;39461;40.948;73.006;2023-03-25T08:32:22;45.17;;;22.75;;
42866;SDS011;39461;40.948;73.006;2023-03-25T08:34:57;42.08;;;20.88;;
42866;SDS011;39461;40.948;73.006;2023-03-25T08:37:30;42.35;;;22.17;;
42866;SDS011;39461;40.948;73.006;2023-03-25T08:40:06;39.90;;;21.85;;
42866;SDS011;39461;40.948;73.006;2023-03-25T08:42:42;45.47;;;24.35;;
42866;SDS011;39461;40.948;73.006;2023-03-25T08:45:15;40.67;;;22.30;;
42866;SDS011;39461;40.948;73.006;2023-03-25T08:47:48;38.80;;;21.63;;
42866;SDS011;39461;40.948;73.006;2023-03-25T08:50:21;38.92;;;20.50;;
42866;SDS011;39461;40.948;73.006;2023-03-25T08:52:55;32.70;;;18.92;;
42866;SDS011;39461;40.948;73.006;2023-03-25T08:55:29;43.55;;;19.25;;
42866;SDS011;39461;40.948;73.006;2023-03-25T08:58:08;35.47;;;19.35;;
42866;SDS011;39461;40.948;73.006;2023-03-25T09:00:37;34.05;;;18.55;;
42866;SDS011;39461;40.948;73.006;2023-03-25T09:03:12;35.90;;;21.38;;
42866;SDS011;39461;40.948;73.006;2023-03-25T09:05:47;33.40;;;18.63;;
42866;SDS011;39461;40.948;73.006;2023-03-25T09:08:23;53.85;;;24.52;;
42866;SDS011;39461;40.948;73.006;2023-03-25T09:10:58;45.40;;;20.17;;
42866;SDS011;39461;40.948;73.006;2023-03-25T09:13:31;28.40;;;16.30;;
42866;SDS011;39461;40.948;73.006;2023-03-25T09:16:06;35.35;;;16.95;;
42866;SDS011;39461;40.948;73.006;2023-03-25T09:18:42;31.73;;;15.07;;
42866;SDS011;39461;40.948;73.006;2023-03-25T09:21:15;37.97;;;15.02;;
42866;SDS011;39461;40.948;73.006;2023-03-25T09:26:48;33.35;;;15.82;;
42866;SDS011;39461;40.948;73.006;2023-03-25T09:29:23;32.45;;;15.68;;
42866;SDS011;39461;40.948;73.006;2023-03-25T09:31:59;26.10;;;14.07;;
42866;SDS011;39461;40.948;73.006;2023-03-25T09:34:32;40.90;;;17.10;;
42866;SDS011;39461;40.948;73.006;2023-03-25T09:37:07;28.88;;;14.48;;
42866;SDS011;39461;40.948;73.006;2023-03-25T09:39:44;27.80;;;14.00;;
42866;SDS011;39461;40.948;73.006;2023-03-25T09:48:00;39.78;;;16.45;;
42866;SDS011;39461;40.948;73.006;2023-03-25T09:56:13;28.38;;;12.55;;
42866;SDS011;39461;40.948;73.006;2023-03-25T09:58:55;30.05;;;13.80;;
42866;SDS011;39461;40.948;73.006;2023-03-25T10:14:56;37.95;;;14.48;;
42866;SDS011;39461;40.948;73.006;2023-03-25T10:17:50;25.80;;;13.30;;
42866;SDS011;39461;40.948;73.006;2023-03-25T10:23:25;33.60;;;13.50;;
42866;SDS011;39461;40.948;73.006;2023-03-25T10:28:59;29.00;;;13.35;;
42866;SDS011;39461;40.948;73.006;2023-03-25T10:31:32;37.00;;;14.82;;
42866;SDS011;39461;40.948;73.006;2023-03-25T10:34:08;32.35;;;14.65;;
42866;SDS011;39461;40.948;73.006;2023-03-25T10:36:48;35.95;;;14.73;;
42866;SDS011;39461;40.948;73.006;2023-03-25T10:39:28;29.80;;;14.45;;
42866;SDS011;39461;40.948;73.006;2023-03-25T10:42:25;31.77;;;14.65;;
42866;SDS011;39461;40.948;73.006;2023-03-25T10:44:59;28.08;;;13.93;;
42866;SDS011;39461;40.948;73.006;2023-03-25T10:47:34;27.95;;;13.73;;
42866;SDS011;39461;40.948;73.006;2023-03-25T10:50:15;33.40;;;14.75;;
42866;SDS011;39461;40.948;73.006;2023-03-25T10:52:50;45.00;;;16.75;;
42866;SDS011;39461;40.948;73.006;2023-03-25T10:55:29;38.17;;;14.60;;
42866;SDS011;39461;40.948;73.006;2023-03-25T10:58:05;26.35;;;15.15;;
42866;SDS011;39461;40.948;73.006;2023-03-25T11:00:41;29.15;;;13.55;;
42866;SDS011;39461;40.948;73.006;2023-03-25T11:03:30;32.58;;;13.75;;
42866;SDS011;39461;40.948;73.006;2023-03-25T11:06:05;35.05;;;13.50;;
42866;SDS011;39461;40.948;73.006;2023-03-25T11:08:54;31.98;;;12.57;;
42866;SDS011;39461;40.948;73.006;2023-03-25T11:11:31;30.77;;;12.82;;
42866;SDS011;39461;40.948;73.006;2023-03-25T11:14:04;36.38;;;14.23;;
42866;SDS011;39461;40.948;73.006;2023-03-25T11:16:45;38.75;;;15.70;;
42866;SDS011;39461;40.948;73.006;2023-03-25T11:22:06;22.42;;;12.85;;
42866;SDS011;39461;40.948;73.006;2023-03-25T11:24:43;35.10;;;14.27;;
42866;SDS011;39461;40.948;73.006;2023-03-25T11:27:24;38.65;;;14.90;;
42866;SDS011;39461;40.948;73.006;2023-03-25T11:30:02;36.80;;;15.57;;
42866;SDS011;39461;40.948;73.006;2023-03-25T11:32:39;30.17;;;15.63;;
42866;SDS011;39461;40.948;73.006;2023-03-25T11:35:16;34.80;;;14.73;;
42866;SDS011;39461;40.948;73.006;2023-03-25T11:37:59;42.53;;;16.02;;
42866;SDS011;39461;40.948;73.006;2023-03-25T11:40:35;36.20;;;18.42;;
42866;SDS011;39461;40.948;73.006;2023-03-25T11:43:10;39.13;;;17.85;;
42866;SDS011;39461;40.948;73.006;2023-03-25T11:45:45;38.90;;;18.42;;
42866;SDS011;39461;40.948;73.006;2023-03-25T11:48:21;38.92;;;17.08;;
42866;SDS011;39461;40.948;73.006;2023-03-25T11:50:57;31.65;;;16.73;;
42866;SDS011;39461;40.948;73.006;2023-03-25T11:53:34;31.23;;;15.77;;
42866;SDS011;39461;40.948;73.006;2023-03-25T11:56:09;46.40;;;17.77;;
42866;SDS011;39461;40.948;73.006;2023-03-25T11:58:45;33.00;;;15.45;;
42866;SDS011;39461;40.948;73.006;2023-03-25T12:04:04;35.70;;;15.48;;
42866;SDS011;39461;40.948;73.006;2023-03-25T12:09:30;34.25;;;16.35;;
42866;SDS011;39461;40.948;73.006;2023-03-25T12:14:47;43.20;;;16.25;;
42866;SDS011;39461;40.948;73.006;2023-03-25T12:22:51;39.88;;;20.92;;
42866;SDS011;39461;40.948;73.006;2023-03-25T12:25:40;42.58;;;22.60;;
42866;SDS011;39461;40.948;73.006;2023-03-25T12:28:31;47.40;;;23.23;;
42866;SDS011;39461;40.948;73.006;2023-03-25T12:34:10;54.30;;;25.38;;
42866;SDS011;39461;40.948;73.006;2023-03-25T12:44:48;44.90;;;22.23;;
42866;SDS011;39461;40.948;73.006;2023-03-25T12:47:28;51.58;;;23.70;;
42866;SDS011;39461;40.948;73.006;2023-03-25T12:55:51;47.75;;;26.17;;
42866;SDS011;39461;40.948;73.006;2023-03-25T12:58:40;48.55;;;26.63;;
42866;SDS011;39461;40.948;73.006;2023-03-25T13:06:39;61.80;;;30.95;;
42866;SDS011;39461;40.948;73.006;2023-03-25T13:09:20;59.65;;;29.88;;
42866;SDS011;39461;40.948;73.006;2023-03-25T13:12:01;60.60;;;29.10;;
42866;SDS011;39461;40.948;73.006;2023-03-25T13:14:40;77.78;;;34.22;;
42866;SDS011;39461;40.948;73.006;2023-03-25T13:17:33;75.07;;;34.80;;
42866;SDS011;39461;40.948;73.006;2023-03-25T13:20:09;77.53;;;33.55;;
42866;SDS011;39461;40.948;73.006;2023-03-25T13:22:50;68.30;;;34.00;;
42866;SDS011;39461;40.948;73.006;2023-03-25T13:28:14;70.18;;;34.83;;
42866;SDS011;39461;40.948;73.006;2023-03-25T13:30:49;77.80;;;33.75;;
42866;SDS011;39461;40.948;73.006;2023-03-25T13:33:23;78.43;;;34.67;;
42866;SDS011;39461;40.948;73.006;2023-03-25T13:36:04;70.60;;;35.90;;
42866;SDS011;39461;40.948;73.006;2023-03-25T13:38:50;59.67;;;33.40;;
42866;SDS011;39461;40.948;73.006;2023-03-25T13:44:10;69.28;;;33.63;;
42866;SDS011;39461;40.948;73.006;2023-03-25T13:46:51;69.53;;;36.05;;
42866;SDS011;39461;40.948;73.006;2023-03-25T13:49:31;75.55;;;36.00;;
42866;SDS011;39461;40.948;73.006;2023-03-25T13:52:08;70.57;;;35.10;;
42866;SDS011;39461;40.948;73.006;2023-03-25T13:54:45;81.18;;;38.80;;
42866;SDS011;39461;40.948;73.006;2023-03-25T13:57:29;83.18;;;45.03;;
42866;SDS011;39461;40.948;73.006;2023-03-25T14:00:30;90.20;;;44.28;;
42866;SDS011;39461;40.948;73.006;2023-03-25T14:14:20;105.82;;;48.53;;
42866;SDS011;39461;40.948;73.006;2023-03-25T14:16:56;111.30;;;51.65;;
42866;SDS011;39461;40.948;73.006;2023-03-25T14:19:35;134.07;;;54.20;;
42866;SDS011;39461;40.948;73.006;2023-03-25T14:22:16;116.00;;;52.70;;
42866;SDS011;39461;40.948;73.006;2023-03-25T14:24:51;150.95;;;56.15;;
42866;SDS011;39461;40.948;73.006;2023-03-25T14:27:27;148.98;;;51.70;;
42866;SDS011;39461;40.948;73.006;2023-03-25T14:29:58;179.48;;;54.53;;
42866;SDS011;39461;40.948;73.006;2023-03-25T14:32:38;167.20;;;56.03;;
42866;SDS011;39461;40.948;73.006;2023-03-25T14:40:45;130.65;;;55.45;;
42866;SDS011;39461;40.948;73.006;2023-03-25T14:43:25;115.22;;;53.00;;
42866;SDS011;39461;40.948;73.006;2023-03-25T14:48:49;145.27;;;56.90;;
42866;SDS011;39461;40.948;73.006;2023-03-25T14:59:28;130.35;;;57.47;;
42866;SDS011;39461;40.948;73.006;2023-03-25T15:02:08;163.45;;;62.78;;
42866;SDS011;39461;40.948;73.006;2023-03-25T15:04:44;170.60;;;70.85;;
42866;SDS011;39461;40.948;73.006;2023-03-25T15:07:36;163.73;;;68.72;;
42866;SDS011;39461;40.948;73.006;2023-03-25T15:10:19;135.18;;;63.38;;
42866;SDS011;39461;40.948;73.006;2023-03-25T15:19:06;105.93;;;58.72;;
42866;SDS011;39461;40.948;73.006;2023-03-25T15:21:16;101.32;;;54.30;;
42866;SDS011;39461;40.948;73.006;2023-03-25T15:26:27;102.57;;;51.92;;
42866;SDS011;39461;40.948;73.006;2023-03-25T15:29:18;98.90;;;50.95;;
42866;SDS011;39461;40.948;73.006;2023-03-25T15:45:35;93.93;;;49.67;;
42866;SDS011;39461;40.948;73.006;2023-03-25T15:48:27;101.00;;;49.50;;
42866;SDS011;39461;40.948;73.006;2023-03-25T15:51:12;96.18;;;51.50;;
42866;SDS011;39461;40.948;73.006;2023-03-25T15:54:02;104.35;;;54.97;;
42866;SDS011;39461;40.948;73.006;2023-03-25T15:56:41;89.80;;;50.00;;
42866;SDS011;39461;40.948;73.006;2023-03-25T16:01:50;92.30;;;47.42;;
42866;SDS011;39461;40.948;73.006;2023-03-25T16:04:34;79.78;;;47.33;;
42866;SDS011;39461;40.948;73.006;2023-03-25T16:07:12;81.03;;;42.78;;
42866;SDS011;39461;40.948;73.006;2023-03-25T16:09:48;87.32;;;44.83;;
42866;SDS011;39461;40.948;73.006;2023-03-25T16:12:23;82.53;;;41.65;;
42866;SDS011;39461;40.948;73.006;2023-03-25T16:14:56;76.30;;;37.60;;
42866;SDS011;39461;40.948;73.006;2023-03-25T16:17:31;70.95;;;36.45;;
42866;SDS011;39461;40.948;73.006;2023-03-25T16:20:05;62.05;;;34.42;;
42866;SDS011;39461;40.948;73.006;2023-03-25T16:22:40;72.25;;;34.92;;
42866;SDS011;39461;40.948;73.006;2023-03-25T16:25:30;62.08;;;32.00;;
42866;SDS011;39461;40.948;73.006;2023-03-25T16:28:07;57.67;;;30.20;;
42866;SDS011;39461;40.948;73.006;2023-03-25T16:30:43;54.13;;;28.60;;
42866;SDS011;39461;40.948;73.006;2023-03-25T16:33:13;54.83;;;27.83;;
42866;SDS011;39461;40.948;73.006;2023-03-25T16:35:49;48.28;;;26.55;;
42866;SDS011;39461;40.948;73.006;2023-03-25T16:38:25;49.97;;;26.23;;
42866;SDS011;39461;40.948;73.006;2023-03-25T16:40:59;53.30;;;26.75;;
42866;SDS011;39461;40.948;73.006;2023-03-25T16:43:33;48.30;;;25.95;;
42866;SDS011;39461;40.948;73.006;2023-03-25T16:46:06;46.92;;;25.17;;
42866;SDS011;39461;40.948;73.006;2023-03-25T16:48:50;55.55;;;26.90;;
42866;SDS011;39461;40.948;73.006;2023-03-25T16:51:27;54.75;;;27.00;;
42866;SDS011;39461;40.948;73.006;2023-03-25T16:54:08;43.83;;;24.92;;
42866;SDS011;39461;40.948;73.006;2023-03-25T16:56:44;52.58;;;25.33;;
42866;SDS011;39461;40.948;73.006;2023-03-25T16:59:24;65.03;;;26.85;;
42866;SDS011;39461;40.948;73.006;2023-03-25T17:02:01;57.50;;;27.85;;
42866;SDS011;39461;40.948;73.006;2023-03-25T17:04:37;57.20;;;26.80;;
42866;SDS011;39461;40.948;73.006;2023-03-25T17:07:16;50.17;;;24.90;;
42866;SDS011;39461;40.948;73.006;2023-03-25T17:09:54;52.90;;;24.27;;
42866;SDS011;39461;40.948;73.006;2023-03-25T17:12:33;44.42;;;24.17;;
42866;SDS011;39461;40.948;73.006;2023-03-25T17:15:07;55.58;;;24.77;;
42866;SDS011;39461;40.948;73.006;2023-03-25T17:17:44;47.50;;;23.85;;
42866;SDS011;39461;40.948;73.006;2023-03-25T17:20:55;45.05;;;24.05;;
42866;SDS011;39461;40.948;73.006;2023-03-25T17:23:33;45.85;;;24.17;;
42866;SDS011;39461;40.948;73.006;2023-03-25T17:26:12;54.20;;;25.30;;
42866;SDS011;39461;40.948;73.006;2023-03-25T17:31:36;62.08;;;24.63;;
42866;SDS011;39461;40.948;73.006;2023-03-25T17:34:11;52.03;;;23.75;;
42866;SDS011;39461;40.948;73.006;2023-03-25T17:36:46;57.20;;;22.90;;
42866;SDS011;39461;40.948;73.006;2023-03-25T17:39:23;42.22;;;21.85;;
42866;SDS011;39461;40.948;73.006;2023-03-25T17:41:58;52.83;;;24.65;;
42866;SDS011;39461;40.948;73.006;2023-03-25T17:44:33;49.50;;;23.02;;
42866;SDS011;39461;40.948;73.006;2023-03-25T17:47:11;45.13;;;22.85;;
42866;SDS011;39461;40.948;73.006;2023-03-25T17:49:45;45.47;;;22.73;;
42866;SDS011;39461;40.948;73.006;2023-03-25T17:52:19;52.85;;;25.77;;
42866;SDS011;39461;40.948;73.006;2023-03-25T17:54:52;50.03;;;25.33;;
42866;SDS011;39461;40.948;73.006;2023-03-25T17:57:25;49.22;;;24.25;;
42866;SDS011;39461;40.948;73.006;2023-03-25T17:59:58;56.42;;;24.38;;
42866;SDS011;39461;40.948;73.006;2023-03-25T18:02:39;52.15;;;24.35;;
42866;SDS011;39461;40.948;73.006;2023-03-25T18:05:12;49.90;;;24.67;;
42866;SDS011;39461;40.948;73.006;2023-03-25T18:07:46;42.97;;;23.58;;